createdAt,value
2023-10-03T00:01:51.117Z,13.95
2023-10-03T00:03:54.986Z,11.95
2023-10-03T00:05:57.623Z,12.75
2023-10-03T00:08:02.089Z,11.60
2023-10-03T00:10:05.016Z,12.40
2023-10-03T00:12:07.344Z,10.80
2023-10-03T00:14:13.062Z,10.93
2023-10-03T00:16:15.380Z,10.00
2023-10-03T00:18:17.892Z,10.98
2023-10-03T00:20:20.310Z,9.00
2023-10-03T00:22:23.202Z,11.27
2023-10-03T00:24:26.564Z,9.07
2023-10-03T00:26:32.824Z,10.77
2023-10-03T00:28:35.736Z,9.57
2023-10-03T00:30:41.942Z,10.13
2023-10-03T00:34:47.796Z,12.88
2023-10-03T00:36:52.033Z,13.25
2023-10-03T00:38:54.680Z,12.63
2023-10-03T00:40:57.447Z,13.48
2023-10-03T00:43:02.610Z,11.90
2023-10-03T00:45:10.232Z,11.38
2023-10-03T00:47:13.327Z,10.82
2023-10-03T00:49:16.350Z,9.63
2023-10-03T00:51:22.476Z,13.32
2023-10-03T00:53:25.294Z,12.27
2023-10-03T00:55:29.509Z,9.70
2023-10-03T00:57:34.130Z,11.80
2023-10-03T00:59:36.897Z,12.93
2023-10-03T01:01:39.800Z,12.02
2023-10-03T01:03:42.673Z,10.65
2023-10-03T01:05:46.086Z,11.77
2023-10-03T01:07:50.899Z,9.95
2023-10-03T01:09:55.066Z,9.80
2023-10-03T01:11:58.002Z,10.45
2023-10-03T01:14:02.069Z,10.25
2023-10-03T01:16:07.481Z,9.80
2023-10-03T01:18:15.530Z,12.27
2023-10-03T01:20:30.319Z,11.18
2023-10-03T01:22:32.905Z,11.20
2023-10-03T01:24:36.106Z,10.18
2023-10-03T01:26:39.242Z,9.75
2023-10-03T01:28:43.987Z,11.90
2023-10-03T01:30:46.797Z,8.98
2023-10-03T01:32:58.684Z,7.45
2023-10-03T01:35:09.718Z,8.48
2023-10-03T01:37:12.421Z,10.60
2023-10-03T01:39:16.149Z,10.13
2023-10-03T01:41:20.418Z,10.23
2023-10-03T01:43:23.177Z,8.77
2023-10-03T01:45:29.034Z,10.55
2023-10-03T01:47:31.871Z,10.68
2023-10-03T01:49:35.911Z,9.73
2023-10-03T01:51:38.455Z,10.75
2023-10-03T01:53:42.066Z,11.07
2023-10-03T01:55:45.712Z,12.18
2023-10-03T01:57:49.704Z,10.73
2023-10-03T01:59:52.191Z,11.00
2023-10-03T02:01:54.730Z,10.55
2023-10-03T02:03:57.887Z,9.35
2023-10-03T02:06:00.999Z,12.25
2023-10-03T02:08:25.741Z,11.43
2023-10-03T02:10:28.270Z,10.98
2023-10-03T02:12:31.742Z,9.70
2023-10-03T02:14:35.546Z,10.38
2023-10-03T02:16:45.646Z,9.98
2023-10-03T02:18:48.294Z,9.00
2023-10-03T02:20:54.340Z,12.15
2023-10-03T02:23:01.000Z,9.30
2023-10-03T02:25:04.883Z,12.50
2023-10-03T02:27:08.405Z,11.52
2023-10-03T02:29:11.781Z,10.18
2023-10-03T02:31:16.726Z,10.52
2023-10-03T02:33:23.484Z,9.55
2023-10-03T02:35:27.934Z,11.48
2023-10-03T02:37:30.536Z,11.10
2023-10-03T02:39:41.219Z,13.43
2023-10-03T02:41:44.053Z,10.38
2023-10-03T02:43:48.750Z,10.82
2023-10-03T02:45:56.391Z,10.32
2023-10-03T02:48:05.420Z,10.80
2023-10-03T02:50:09.696Z,11.77
2023-10-03T02:52:13.602Z,11.65
2023-10-03T02:54:17.251Z,11.88
2023-10-03T02:56:20.393Z,16.42
2023-10-03T02:58:23.302Z,12.13
2023-10-03T03:00:26.154Z,14.35
2023-10-03T03:02:28.849Z,12.43
2023-10-03T03:04:31.638Z,10.90
2023-10-03T03:06:34.597Z,12.07
2023-10-03T03:08:41.711Z,12.55
2023-10-03T03:11:09.473Z,12.52
2023-10-03T03:13:15.480Z,16.63
2023-10-03T03:15:29.665Z,14.05
2023-10-03T03:17:32.864Z,14.65
2023-10-03T03:19:35.496Z,16.88
2023-10-03T03:21:38.285Z,12.63
2023-10-03T03:23:45.030Z,16.55
2023-10-03T03:25:51.279Z,12.18
2023-10-03T03:27:58.332Z,13.38
2023-10-03T03:30:24.536Z,16.20
2023-10-03T03:32:29.038Z,15.70
2023-10-03T03:34:32.372Z,13.82
2023-10-03T03:36:36.711Z,15.45
2023-10-03T03:38:39.119Z,14.82
2023-10-03T03:40:47.106Z,12.98
2023-10-03T03:42:50.181Z,13.40
2023-10-03T03:44:52.482Z,13.98
2023-10-03T03:46:55.090Z,14.85
2023-10-03T03:49:00.271Z,13.23
2023-10-03T03:51:03.097Z,14.02
2023-10-03T03:53:06.461Z,14.38
2023-10-03T03:55:10.206Z,15.63
2023-10-03T03:57:12.696Z,13.40
2023-10-03T03:59:15.304Z,15.20
2023-10-03T04:01:25.218Z,14.95
2023-10-03T04:03:36.558Z,14.57
2023-10-03T04:05:42.164Z,16.25
2023-10-03T04:07:45.775Z,14.10
2023-10-03T04:09:48.338Z,14.82
2023-10-03T04:11:51.133Z,16.73
2023-10-03T04:13:57.067Z,15.82
2023-10-03T04:16:02.916Z,16.05
2023-10-03T04:18:05.871Z,15.70
2023-10-03T04:20:21.736Z,12.45
2023-10-03T04:22:24.224Z,14.50
2023-10-03T04:24:27.346Z,14.60
2023-10-03T04:26:34.067Z,18.83
2023-10-03T04:30:41.705Z,16.25
2023-10-03T04:32:44.998Z,17.30
2023-10-03T04:34:47.677Z,17.17
2023-10-03T04:36:50.489Z,16.17
2023-10-03T04:38:53.472Z,15.20
2023-10-03T04:40:58.847Z,12.90
2023-10-03T04:43:03.365Z,15.90
2023-10-03T04:45:11.744Z,17.63
2023-10-03T04:47:14.461Z,14.27
2023-10-03T04:49:17.985Z,15.18
2023-10-03T04:51:20.737Z,12.18
2023-10-03T04:53:25.068Z,14.25
2023-10-03T04:55:28.304Z,15.65
2023-10-03T04:57:31.121Z,14.07
2023-10-03T04:59:33.580Z,13.93
2023-10-03T05:01:36.575Z,12.85
2023-10-03T05:03:39.830Z,14.73
2023-10-03T05:05:42.703Z,11.43
2023-10-03T05:07:46.926Z,13.05
2023-10-03T05:09:50.284Z,14.95
2023-10-03T05:11:52.719Z,16.52
2023-10-03T05:13:56.692Z,15.13
2023-10-03T05:15:59.351Z,12.52
2023-10-03T05:18:03.861Z,13.05
2023-10-03T05:20:08.929Z,15.80
2023-10-03T05:24:18.384Z,12.90
2023-10-03T05:26:22.723Z,16.63
2023-10-03T05:28:25.635Z,14.52
2023-10-03T05:30:31.186Z,13.13
2023-10-03T05:32:33.887Z,12.05
2023-10-03T05:34:36.717Z,17.67
2023-10-03T05:36:40.732Z,13.57
2023-10-03T05:38:44.473Z,16.98
2023-10-03T05:40:48.632Z,13.15
2023-10-03T05:42:51.566Z,13.73
2023-10-03T05:44:54.608Z,14.23
2023-10-03T05:46:57.654Z,13.30
2023-10-03T05:49:00.257Z,11.05
2023-10-03T05:51:03.115Z,14.85
2023-10-03T05:53:08.656Z,12.23
2023-10-03T05:55:12.385Z,15.05
2023-10-03T05:57:15.542Z,20.05
2023-10-03T05:59:18.010Z,11.93
2023-10-03T06:01:20.762Z,13.18
2023-10-03T06:03:24.178Z,14.27
2023-10-03T06:05:27.730Z,12.52
2023-10-03T06:07:32.631Z,15.15
2023-10-03T06:09:35.398Z,13.00
2023-10-03T06:11:39.411Z,13.20
2023-10-03T06:13:45.693Z,13.10
2023-10-03T06:15:48.318Z,12.38
2023-10-03T06:31:06.656Z,16.58
2023-10-03T06:33:17.394Z,14.57
2023-10-03T06:35:21.779Z,10.75
2023-10-03T06:37:27.013Z,9.80
2023-10-03T06:39:31.491Z,12.38
2023-10-03T06:41:34.504Z,11.10
2023-10-03T06:43:37.131Z,11.88
2023-10-03T06:45:40.435Z,11.60
2023-10-03T06:47:43.025Z,11.15
2023-10-03T06:49:45.802Z,13.15
2023-10-03T06:51:48.699Z,12.65
2023-10-03T06:53:54.280Z,11.05
2023-10-03T06:55:58.977Z,12.30
2023-10-03T06:58:02.627Z,13.38
2023-10-03T07:00:06.387Z,11.77
2023-10-03T07:02:10.004Z,11.05
2023-10-03T07:04:13.181Z,11.70
2023-10-03T07:06:16.521Z,10.38
2023-10-03T07:08:19.165Z,12.82
2023-10-03T07:10:23.735Z,11.18
2023-10-03T07:12:27.167Z,8.60
2023-10-03T07:14:31.949Z,10.70
2023-10-03T07:16:39.165Z,12.48
2023-10-03T07:18:46.071Z,10.35
2023-10-03T07:20:49.895Z,10.35
2023-10-03T07:22:53.206Z,11.07
2023-10-03T07:24:56.401Z,11.65
2023-10-03T07:27:05.578Z,13.07
2023-10-03T07:29:08.444Z,11.27
2023-10-03T07:31:14.722Z,11.02
2023-10-03T07:33:18.805Z,11.75
2023-10-03T07:35:23.390Z,13.77
2023-10-03T07:37:26.282Z,10.80
2023-10-03T07:39:28.853Z,11.60
2023-10-03T07:41:31.556Z,12.32
2023-10-03T07:43:34.387Z,11.05
2023-10-03T07:45:42.379Z,11.25
2023-10-03T07:47:46.523Z,10.02
2023-10-03T07:49:50.013Z,10.70
2023-10-03T07:51:58.572Z,10.77
2023-10-03T07:54:01.418Z,11.52
2023-10-03T07:56:04.282Z,12.57
2023-10-03T07:58:07.843Z,13.70
2023-10-03T08:00:19.215Z,10.95
2023-10-03T08:02:28.018Z,10.68
2023-10-03T08:04:33.966Z,12.80
2023-10-03T08:06:38.183Z,9.82
2023-10-03T08:08:41.229Z,10.65
2023-10-03T08:10:48.404Z,12.10
2023-10-03T08:12:54.430Z,11.60
2023-10-03T08:14:57.252Z,9.32
2023-10-03T08:17:00.431Z,9.95
2023-10-03T08:19:04.132Z,12.88
2023-10-03T08:21:09.768Z,11.13
2023-10-03T08:23:13.056Z,10.15
2023-10-03T08:25:16.034Z,10.82
2023-10-03T08:27:23.256Z,12.02
2023-10-03T08:29:27.540Z,11.35
2023-10-03T08:31:31.048Z,12.07
2023-10-03T08:33:38.008Z,11.07
2023-10-03T08:35:41.501Z,11.38
2023-10-03T08:37:45.417Z,11.38
2023-10-03T08:39:50.321Z,10.60
2023-10-03T08:42:19.369Z,11.50
2023-10-03T08:44:26.684Z,11.30
2023-10-03T08:46:31.565Z,11.05
2023-10-03T08:48:36.455Z,9.13
2023-10-03T08:50:54.185Z,12.85
2023-10-03T08:52:58.237Z,12.40
2023-10-03T08:55:03.672Z,11.90
2023-10-03T08:57:06.881Z,11.48
2023-10-03T08:59:17.770Z,10.43
2023-10-03T09:01:21.198Z,9.75
2023-10-03T09:03:25.036Z,13.20
2023-10-03T09:05:28.256Z,10.95
2023-10-03T09:07:45.711Z,12.35
2023-10-03T09:09:48.770Z,11.88
2023-10-03T09:11:53.241Z,11.48
2023-10-03T09:14:01.705Z,12.05
2023-10-03T09:16:09.826Z,13.13
2023-10-03T09:18:23.481Z,11.02
2023-10-03T09:20:33.186Z,12.63
2023-10-03T09:22:38.201Z,9.23
2023-10-03T09:24:49.571Z,12.77
2023-10-03T09:27:09.710Z,9.77
2023-10-03T09:29:21.123Z,9.73
2023-10-03T09:31:25.376Z,11.77
2023-10-03T09:33:28.737Z,11.63
2023-10-03T09:35:32.542Z,11.02
2023-10-03T09:37:35.984Z,11.18
2023-10-03T09:39:52.853Z,11.32
2023-10-03T09:41:56.591Z,12.48
2023-10-03T09:44:00.709Z,13.18
2023-10-03T09:46:03.532Z,11.57
2023-10-03T09:48:07.759Z,12.38
2023-10-03T09:50:11.370Z,12.40
2023-10-03T09:52:29.254Z,10.57
2023-10-03T09:54:34.076Z,11.85
2023-10-03T09:56:42.168Z,10.95
2023-10-03T09:58:48.185Z,12.32
2023-10-03T10:00:54.934Z,12.10
2023-10-03T10:03:05.229Z,11.07
2023-10-03T10:05:24.292Z,12.70
2023-10-03T10:07:36.209Z,12.68
2023-10-03T10:09:50.052Z,13.15
2023-10-03T10:12:15.772Z,11.15
2023-10-03T10:14:21.530Z,12.85
2023-10-03T10:16:25.088Z,11.70
2023-10-03T10:18:46.148Z,10.73
2023-10-03T10:21:25.989Z,10.25
2023-10-03T10:23:36.030Z,14.88
2023-10-03T10:25:53.609Z,10.48
2023-10-03T10:28:08.354Z,9.77
2023-10-03T10:30:15.726Z,12.70
2023-10-03T10:32:21.269Z,10.98
2023-10-03T10:34:24.151Z,11.15
2023-10-03T10:36:57.748Z,10.52
2023-10-03T10:39:01.167Z,12.25
2023-10-03T10:41:13.593Z,11.45
2023-10-03T10:43:18.197Z,11.60
2023-10-03T10:45:22.618Z,11.60
2023-10-03T10:47:26.029Z,12.77
2023-10-03T10:49:38.309Z,12.88
2023-10-03T10:53:59.224Z,12.60
2023-10-03T10:56:02.110Z,14.38
2023-10-03T10:58:10.035Z,12.15
2023-10-03T11:00:23.343Z,9.48
2023-10-03T11:02:30.219Z,11.98
2023-10-03T11:04:35.183Z,11.50
2023-10-03T11:06:38.583Z,13.48
2023-10-03T11:08:49.659Z,11.93
2023-10-03T11:10:56.748Z,11.77
2023-10-03T11:13:01.935Z,15.10
2023-10-03T11:15:07.161Z,11.55
2023-10-03T11:17:10.475Z,11.98
2023-10-03T11:19:13.117Z,13.98
2023-10-03T11:21:17.690Z,10.82
2023-10-03T11:23:20.925Z,12.27
2023-10-03T11:25:23.632Z,11.10
2023-10-03T11:27:30.983Z,11.07
2023-10-03T11:29:41.957Z,13.10
2023-10-03T11:31:46.291Z,11.40
2023-10-03T11:33:49.348Z,13.25
2023-10-03T11:35:55.884Z,14.15
2023-10-03T11:40:22.182Z,12.20
2023-10-03T11:42:28.387Z,11.50
2023-10-03T11:44:32.920Z,11.98
2023-10-03T11:46:39.833Z,12.38
2023-10-03T11:48:43.345Z,11.05
2023-10-03T11:50:47.399Z,12.02
2023-10-03T11:52:50.456Z,11.38
2023-10-03T11:54:53.123Z,11.02
2023-10-03T11:56:58.702Z,9.98
2023-10-03T11:59:02.440Z,12.15
2023-10-03T12:01:06.305Z,14.23
2023-10-03T12:03:11.611Z,12.65
2023-10-03T12:05:16.170Z,10.25
2023-10-03T12:07:18.733Z,11.52
2023-10-03T12:09:22.348Z,12.00
2023-10-03T12:11:25.769Z,11.90
2023-10-03T12:13:28.503Z,12.02
2023-10-03T12:15:31.955Z,11.80
2023-10-03T12:17:35.245Z,11.25
2023-10-03T12:19:39.103Z,10.82
2023-10-03T12:21:41.865Z,11.65
2023-10-03T12:23:46.954Z,12.85
2023-10-03T12:25:50.103Z,13.80
2023-10-03T12:27:53.056Z,10.68
2023-10-03T12:29:55.830Z,9.10
2023-10-03T12:31:59.243Z,11.00
2023-10-03T12:34:03.506Z,10.43
2023-10-03T12:36:06.559Z,10.80
2023-10-03T12:38:13.333Z,10.57
2023-10-03T12:40:21.124Z,10.68
2023-10-03T12:42:24.426Z,9.82
2023-10-03T12:44:27.846Z,8.35
2023-10-03T12:46:30.501Z,11.40
2023-10-03T12:48:34.335Z,12.07
2023-10-03T12:50:38.421Z,11.25
2023-10-03T12:52:44.101Z,11.02
2023-10-03T12:54:47.878Z,9.38
2023-10-03T12:56:50.493Z,9.95
2023-10-03T12:58:53.203Z,10.93
2023-10-03T13:00:55.711Z,9.02
2023-10-03T13:03:01.737Z,10.05
2023-10-03T13:05:06.752Z,9.52
2023-10-03T13:07:11.023Z,13.98
2023-10-03T13:09:14.253Z,9.00
2023-10-03T13:11:16.895Z,9.00
2023-10-03T13:13:26.399Z,11.15
2023-10-03T13:15:34.960Z,10.00
2023-10-03T13:17:39.684Z,10.80
2023-10-03T13:19:42.630Z,10.15
2023-10-03T13:21:46.742Z,9.98
2023-10-03T13:23:49.645Z,10.77
2023-10-03T13:25:53.540Z,10.07
2023-10-03T13:27:56.317Z,9.77
2023-10-03T13:29:59.052Z,12.05
2023-10-03T13:32:04.125Z,9.07
2023-10-03T13:34:06.737Z,9.63
2023-10-03T13:36:09.718Z,8.60
2023-10-03T13:38:12.780Z,10.45
2023-10-03T13:40:15.687Z,10.48
2023-10-03T13:42:18.916Z,9.90
2023-10-03T13:44:22.518Z,10.55
2023-10-03T13:46:27.906Z,9.15
2023-10-03T13:48:30.973Z,9.27
2023-10-03T13:50:35.926Z,9.85
2023-10-03T13:52:42.543Z,9.43
2023-10-03T13:54:45.426Z,10.02
2023-10-03T13:56:48.700Z,12.60
2023-10-03T13:58:51.554Z,9.30
2023-10-03T14:00:54.722Z,11.00
2023-10-03T14:03:02.768Z,9.73
2023-10-03T14:05:11.885Z,10.90
2023-10-03T14:07:14.817Z,8.88
2023-10-03T14:09:19.132Z,8.40
2023-10-03T14:11:26.508Z,9.40
2023-10-03T14:13:29.621Z,9.70
2023-10-03T14:15:34.850Z,12.82
2023-10-03T14:17:37.496Z,13.40
2023-10-03T14:19:41.106Z,11.60
2023-10-03T14:21:46.953Z,10.52
2023-10-03T14:23:53.521Z,9.48
2023-10-03T14:25:59.667Z,9.15
2023-10-03T14:28:02.498Z,12.30
2023-10-03T14:30:06.712Z,10.98
2023-10-03T14:32:12.222Z,9.15
2023-10-03T14:34:16.193Z,9.18
2023-10-03T14:36:19.049Z,12.00
2023-10-03T14:38:22.256Z,11.55
2023-10-03T14:40:25.091Z,9.40
2023-10-03T14:42:28.228Z,12.38
2023-10-03T14:44:31.405Z,11.63
2023-10-03T14:46:35.011Z,12.85
2023-10-03T14:48:38.858Z,10.45
2023-10-03T14:50:42.842Z,11.73
2023-10-03T14:52:45.558Z,10.98
2023-10-03T14:54:48.582Z,11.18
2023-10-03T14:56:52.246Z,10.30
2023-10-03T14:58:55.792Z,10.02
2023-10-03T15:01:06.217Z,12.20
2023-10-03T15:03:10.582Z,8.80
2023-10-03T15:05:15.965Z,11.60
2023-10-03T15:07:19.001Z,9.82
2023-10-03T15:09:21.817Z,11.60
2023-10-03T15:11:24.665Z,10.65
2023-10-03T15:13:27.869Z,10.32
2023-10-03T15:15:31.631Z,10.27
2023-10-03T15:17:37.361Z,8.90
2023-10-03T15:19:40.229Z,10.55
2023-10-03T15:21:43.113Z,8.50
2023-10-03T15:23:47.218Z,10.40
2023-10-03T15:25:51.157Z,10.68
2023-10-03T15:27:56.460Z,11.13
2023-10-03T15:30:03.144Z,9.48
2023-10-03T15:32:07.212Z,9.30
2023-10-03T15:34:11.304Z,10.73
2023-10-03T15:36:14.152Z,10.55
2023-10-03T15:38:17.649Z,9.93
2023-10-03T15:40:22.497Z,10.88
2023-10-03T15:42:26.816Z,9.55
2023-10-03T15:44:29.616Z,10.25
2023-10-03T15:46:36.102Z,9.60
2023-10-03T15:50:45.134Z,8.65
2023-10-03T15:52:48.107Z,11.68
2023-10-03T15:54:50.726Z,9.10
2023-10-03T15:56:54.362Z,8.93
2023-10-03T15:58:56.884Z,10.73
2023-10-03T16:00:59.951Z,10.13
2023-10-03T16:03:04.887Z,9.82
2023-10-03T16:05:12.224Z,9.60
2023-10-03T16:07:15.495Z,11.60
2023-10-03T16:09:21.089Z,9.18
2023-10-03T16:11:26.281Z,11.15
2023-10-03T16:13:29.285Z,9.05
2023-10-03T16:15:32.326Z,10.38
2023-10-03T16:17:36.732Z,10.23
2023-10-03T16:19:39.877Z,11.60
2023-10-03T16:21:43.836Z,11.95
2023-10-03T16:23:47.596Z,10.02
2023-10-03T16:25:50.564Z,10.60
2023-10-03T16:27:53.487Z,9.85
2023-10-03T16:29:56.656Z,9.98
2023-10-03T16:31:59.317Z,12.25
2023-10-03T16:34:01.998Z,10.10
2023-10-03T16:36:06.807Z,10.70
2023-10-03T16:38:09.699Z,11.52
2023-10-03T16:40:14.268Z,11.85
2023-10-03T16:42:19.487Z,9.30
2023-10-03T16:44:22.998Z,12.60
2023-10-03T16:46:26.076Z,10.52
2023-10-03T16:48:29.265Z,9.20
2023-10-03T16:50:32.305Z,9.75
2023-10-03T16:52:35.360Z,11.07
2023-10-03T16:54:38.119Z,11.85
2023-10-03T16:56:43.213Z,11.65
2023-10-03T16:58:46.231Z,11.05
2023-10-03T17:00:48.967Z,11.05
2023-10-03T17:02:51.834Z,9.50
2023-10-03T17:04:54.948Z,11.13
2023-10-03T17:07:00.136Z,10.07
2023-10-03T17:09:04.932Z,9.68
2023-10-03T17:11:08.148Z,13.45
2023-10-03T17:13:10.828Z,9.10
2023-10-03T17:15:13.934Z,9.80
2023-10-03T17:17:18.203Z,10.95
2023-10-03T17:19:20.847Z,9.30
2023-10-03T17:21:23.623Z,13.75
2023-10-03T17:23:26.479Z,10.02
2023-10-03T17:25:30.944Z,9.50
2023-10-03T17:27:33.633Z,9.35
2023-10-03T17:29:36.790Z,9.20
2023-10-03T17:31:43.533Z,7.65
2023-10-03T17:33:46.454Z,9.63
2023-10-03T17:35:50.124Z,9.60
2023-10-03T17:37:53.113Z,9.40
2023-10-03T17:39:56.538Z,10.25
2023-10-03T17:41:59.390Z,8.98
2023-10-03T17:44:02.497Z,11.57
2023-10-03T17:46:06.497Z,9.38
2023-10-03T17:48:11.165Z,8.65
2023-10-03T17:50:15.754Z,9.32
2023-10-03T17:52:19.873Z,9.25
2023-10-03T17:54:33.344Z,12.82
2023-10-03T17:56:37.323Z,10.55
2023-10-03T17:58:40.126Z,10.25
2023-10-03T18:00:43.494Z,11.65
2023-10-03T18:02:48.046Z,13.93
2023-10-03T18:04:52.393Z,10.43
2023-10-03T18:06:55.689Z,9.75
2023-10-03T18:08:58.793Z,8.80
2023-10-03T18:11:04.067Z,10.80
2023-10-03T18:13:07.435Z,11.30
2023-10-03T18:15:12.748Z,7.90
2023-10-03T18:17:15.800Z,7.50
2023-10-03T18:19:18.636Z,8.48
2023-10-03T18:21:21.602Z,7.88
2023-10-03T18:23:25.007Z,7.47
2023-10-03T18:25:27.821Z,7.75
2023-10-03T18:27:31.624Z,8.32
2023-10-03T18:29:34.301Z,7.75
2023-10-03T18:31:38.117Z,9.90
2023-10-03T18:33:40.847Z,8.48
2023-10-03T18:35:44.734Z,10.05
2023-10-03T18:37:48.320Z,7.15
2023-10-03T18:39:51.381Z,6.57
2023-10-03T18:41:55.259Z,9.95
2023-10-03T18:43:59.056Z,8.80
2023-10-03T18:46:10.452Z,8.13
2023-10-03T18:48:13.704Z,8.25
2023-10-03T18:50:16.821Z,6.38
2023-10-03T18:52:20.442Z,7.82
2023-10-03T18:54:23.400Z,11.48
2023-10-03T18:56:26.817Z,6.93
2023-10-03T18:58:30.136Z,7.80
2023-10-03T19:00:33.849Z,9.90
2023-10-03T19:02:36.781Z,8.48
2023-10-03T19:04:40.711Z,8.40
2023-10-03T19:06:43.601Z,7.47
2023-10-03T19:08:46.815Z,8.15
2023-10-03T19:10:52.841Z,8.88
2023-10-03T19:12:58.665Z,8.45
2023-10-03T19:15:02.698Z,6.82
2023-10-03T19:17:06.235Z,8.98
2023-10-03T19:19:10.115Z,7.60
2023-10-03T19:21:14.126Z,8.88
2023-10-03T19:23:17.168Z,7.55
2023-10-03T19:25:20.841Z,7.88
2023-10-03T19:27:24.111Z,9.02
2023-10-03T19:29:26.684Z,7.35
2023-10-03T19:31:29.296Z,6.53
2023-10-03T19:33:32.356Z,9.50
2023-10-03T19:35:35.802Z,10.15
2023-10-03T19:37:38.807Z,7.25
2023-10-03T19:39:42.129Z,6.28
2023-10-03T19:41:45.071Z,6.13
2023-10-03T19:43:49.276Z,9.10
2023-10-03T19:45:52.141Z,7.70
2023-10-03T19:47:55.582Z,6.85
2023-10-03T19:49:59.787Z,8.88
2023-10-03T19:52:02.650Z,10.23
2023-10-03T19:54:05.513Z,7.03
2023-10-03T19:56:10.082Z,5.70
2023-10-03T19:58:12.904Z,8.40
2023-10-03T20:00:16.430Z,7.57
2023-10-03T20:02:25.629Z,7.85
2023-10-03T20:04:28.506Z,9.25
2023-10-03T20:06:31.224Z,7.18
2023-10-03T20:08:34.443Z,9.10
2023-10-03T20:10:37.319Z,8.88
2023-10-03T20:12:40.086Z,8.55
2023-10-03T20:14:43.085Z,7.63
2023-10-03T20:16:46.416Z,7.93
2023-10-03T20:18:50.293Z,9.30
2023-10-03T20:20:53.696Z,8.25
2023-10-03T20:22:57.289Z,8.82
2023-10-03T20:25:02.359Z,8.20
2023-10-03T20:27:06.197Z,7.82
2023-10-03T20:29:08.917Z,8.07
2023-10-03T20:31:12.039Z,8.57
2023-10-03T20:33:15.544Z,8.00
2023-10-03T20:35:18.854Z,7.32
2023-10-03T20:37:23.452Z,7.75
2023-10-03T20:39:28.218Z,9.07
2023-10-03T20:41:31.176Z,7.45
2023-10-03T20:43:36.136Z,8.07
2023-10-03T20:45:42.077Z,7.35
2023-10-03T20:47:44.800Z,9.10
2023-10-03T20:49:54.029Z,7.80
2023-10-03T20:51:59.013Z,7.25
2023-10-03T20:54:08.111Z,9.73
2023-10-03T20:56:11.870Z,7.63
2023-10-03T20:58:17.171Z,9.63
2023-10-03T21:00:19.977Z,7.75
2023-10-03T21:02:29.224Z,8.68
2023-10-03T21:04:32.046Z,8.23
2023-10-03T21:06:36.282Z,9.63
2023-10-03T21:08:39.204Z,8.25
2023-10-03T21:10:44.924Z,9.10
2023-10-03T21:12:51.842Z,8.75
2023-10-03T21:14:55.225Z,8.82
2023-10-03T21:16:57.990Z,10.00
2023-10-03T21:19:00.890Z,9.05
2023-10-03T21:21:04.521Z,10.18
2023-10-03T21:23:07.289Z,8.52
2023-10-03T21:25:12.584Z,4.55
2023-10-03T21:27:15.675Z,5.68
2023-10-03T21:29:18.791Z,3.38
2023-10-03T21:31:21.505Z,4.60
2023-10-03T21:33:24.090Z,5.35
2023-10-03T21:35:26.655Z,3.83
2023-10-03T21:37:29.419Z,4.45
2023-10-03T21:39:32.482Z,5.20
2023-10-03T21:41:36.418Z,3.42
2023-10-03T21:43:39.542Z,4.85
2023-10-03T21:45:42.489Z,4.63
2023-10-03T21:47:45.517Z,6.07
2023-10-03T21:49:49.798Z,4.20
2023-10-03T21:51:53.842Z,5.50
2023-10-03T21:53:56.508Z,4.50
2023-10-03T21:56:00.129Z,5.40
2023-10-03T21:58:03.416Z,5.40
2023-10-03T22:00:21.951Z,6.07
2023-10-03T22:02:25.420Z,4.40
2023-10-03T22:04:28.520Z,6.63
2023-10-03T22:06:31.991Z,6.50
2023-10-03T22:08:35.066Z,4.88
2023-10-03T22:10:38.980Z,5.47
2023-10-03T22:12:41.547Z,4.57
2023-10-03T22:14:44.533Z,7.43
2023-10-03T22:16:47.276Z,6.22
2023-10-03T22:18:50.100Z,5.72
2023-10-03T22:20:54.154Z,6.68
2023-10-03T22:22:57.384Z,6.60
2023-10-03T22:24:59.881Z,5.47
2023-10-03T22:27:04.468Z,5.18
2023-10-03T22:29:10.024Z,6.03
2023-10-03T22:31:16.365Z,5.50
2023-10-03T22:33:19.806Z,5.15
2023-10-03T22:35:23.246Z,8.55
2023-10-03T22:37:27.518Z,4.95
2023-10-03T22:39:30.154Z,6.45
2023-10-03T22:41:32.713Z,6.05
2023-10-03T22:43:35.890Z,4.30
2023-10-03T22:45:39.132Z,6.10
2023-10-03T22:47:41.983Z,5.22
2023-10-03T22:49:44.835Z,5.70
2023-10-03T22:51:48.021Z,5.22
2023-10-03T22:53:52.872Z,7.07
2023-10-03T22:55:55.823Z,5.18
2023-10-03T22:57:58.593Z,4.38
2023-10-03T23:00:03.480Z,5.15
2023-10-03T23:02:07.265Z,5.35
2023-10-03T23:04:10.024Z,6.28
2023-10-03T23:06:13.214Z,5.07
2023-10-03T23:08:16.085Z,4.68
2023-10-03T23:10:19.633Z,5.55
2023-10-03T23:12:22.685Z,5.50
2023-10-03T23:14:26.026Z,4.43
2023-10-03T23:16:30.342Z,6.32
2023-10-03T23:18:34.449Z,4.93
2023-10-03T23:20:37.160Z,6.32
2023-10-03T23:22:40.409Z,7.18
2023-10-03T23:24:43.440Z,4.97
2023-10-03T23:26:46.157Z,6.35
2023-10-03T23:28:49.186Z,4.70
2023-10-03T23:30:53.784Z,6.18
2023-10-03T23:32:56.239Z,6.63
2023-10-03T23:34:59.806Z,6.72
2023-10-03T23:37:03.038Z,6.20
2023-10-03T23:39:10.056Z,3.60
2023-10-03T23:41:14.327Z,4.13
2023-10-03T23:43:19.524Z,5.07
2023-10-03T23:45:22.453Z,5.47
2023-10-03T23:47:25.958Z,6.90
2023-10-03T23:49:28.642Z,5.53
2023-10-03T23:51:31.524Z,4.57
2023-10-03T23:53:34.875Z,4.30
2023-10-03T23:55:37.487Z,5.68
2023-10-03T23:57:41.887Z,4.97
2023-10-03T23:59:45.695Z,4.80
